Airfield :
LOGIN :

Register | Disclaimer

   EN    FR    IT 

 










Legend :    VFR   Marginal VFR   IFR   Intensive IFR   Very Intensive IFR
Visi :
Ceiling :
>= 8 km
>= 3000ft
5 to 8 km
1000 to 3000 ft
1500m to 5 km
500 to 1000 ft
800 to 1500m
200 to 500 ft
< 800m
< 200 ft
Symbols :   Thunderstorms  Fog  Heavy snow  Heavy precipitations  Wind > 20 kt
SIGMETs :     Misc.  Thunderstorms  Icing  Turbulence  Mountain Waves  Volcanic Ashes






- Airport Elevation : 126 ft
- IATA code : TIA


LATI - Rinas Mother Teresa Arpt - Tirana

CURRENT METAR :
  • 021220Z 31008KT 260V350 CAVOK 24/11 Q1010 NOSIG

EXPIRED METARs :
  • 021150Z 33009KT 260V010 CAVOK 24/10 Q1010 NOSIG
  • 021120Z 33008KT 300V010 CAVOK 24/10 Q1011 NOSIG
  • 021050Z 34009KT 310V020 CAVOK 24/09 Q1011 NOSIG
  • 021020Z 33008KT 280V010 CAVOK 23/09 Q1011 NOSIG
  • 020950Z 32006KT 230V010 CAVOK 23/10 Q1011 NOSIG

TAF COR TAF LATI
Valid from the 02 at 12:00 until the 03 at 12:00 UTC


021100Z 0212/0312 34012KT CAVOK TX26/0312Z TN12/0304Z
BECMG 0216/0218 VRB04KT



MET'MAP, your aeronautical weather chart ! - Copyright ORBIFLY December 2007 - Disclaimer

ORBIFLY MET'MAP TEAM :

Programming & Development : Alexandra Zaïnal
Concept & original design : Baudouin d'Aumeries
Assistance for programming : Marc-Olivier Méhu
Technical & hardware support : Manuel Goepfert

Contact : metmap@orbifly.com




SOURCES & CREDITS :

   NOAA